createdAt,value
2018-01-27T00:00:47.653Z,43.90
2018-01-27T00:03:17.302Z,41.53
2018-01-27T00:05:46.175Z,43.37
2018-01-27T00:08:15.016Z,45.90
2018-01-27T00:10:43.875Z,47.37
2018-01-27T00:13:13.436Z,46.07
2018-01-27T00:15:43.059Z,51.03
2018-01-27T00:18:11.937Z,44.20
2018-01-27T00:20:41.548Z,44.73
2018-01-27T00:23:11.154Z,44.37
2018-01-27T00:25:40.778Z,41.23
2018-01-27T00:28:09.626Z,52.67
2018-01-27T00:30:38.482Z,45.93
2018-01-27T00:33:07.848Z,54.20
2018-01-27T00:35:37.466Z,50.73
2018-01-27T00:38:06.337Z,42.37
2018-01-27T00:40:35.944Z,45.00
2018-01-27T00:43:06.158Z,53.33
2018-01-27T00:45:35.765Z,51.37
2018-01-27T00:48:05.386Z,55.87
2018-01-27T00:50:35.008Z,46.93
2018-01-27T00:53:03.874Z,52.50
2018-01-27T00:55:33.505Z,51.00
2018-01-27T00:58:02.344Z,44.57
2018-01-27T01:00:31.173Z,43.93
2018-01-27T01:03:00.026Z,49.47
2018-01-27T01:05:28.863Z,48.57
2018-01-27T01:07:58.488Z,42.00
2018-01-27T01:10:28.077Z,48.03
2018-01-27T01:12:56.927Z,49.97
2018-01-27T01:15:27.289Z,41.33
2018-01-27T01:17:56.137Z,51.93
2018-01-27T01:20:24.977Z,42.60
2018-01-27T01:22:53.826Z,45.73
2018-01-27T01:25:23.452Z,43.90
2018-01-27T01:27:53.045Z,52.70
2018-01-27T01:30:22.278Z,48.77
2018-01-27T01:32:51.115Z,48.53
2018-01-27T01:35:19.958Z,45.17
2018-01-27T01:37:48.806Z,47.10
2018-01-27T01:40:17.654Z,43.57
2018-01-27T01:42:53.013Z,48.93
2018-01-27T01:45:22.089Z,49.60
2018-01-27T01:47:51.702Z,45.63
2018-01-27T01:50:21.320Z,47.90
2018-01-27T01:52:50.173Z,45.90
2018-01-27T01:55:19.016Z,47.27
2018-01-27T01:57:47.854Z,42.57
2018-01-27T02:00:16.690Z,42.33
2018-01-27T02:02:46.471Z,43.50
2018-01-27T02:05:16.077Z,39.47
2018-01-27T02:07:45.691Z,47.10
2018-01-27T02:10:16.006Z,48.20
2018-01-27T02:12:45.624Z,43.33
2018-01-27T02:15:15.218Z,34.53
2018-01-27T02:17:44.843Z,47.67
2018-01-27T02:20:14.441Z,42.17
2018-01-27T02:22:44.066Z,46.03
2018-01-27T02:25:12.890Z,39.33
2018-01-27T02:27:41.755Z,42.37
2018-01-27T02:30:10.595Z,48.60
2018-01-27T02:32:39.438Z,43.23
2018-01-27T02:35:08.287Z,51.67
2018-01-27T02:37:37.141Z,46.67
2018-01-27T02:40:06.010Z,41.20
2018-01-27T02:42:35.602Z,46.20
2018-01-27T02:45:05.227Z,40.13
2018-01-27T02:47:34.826Z,49.90
2018-01-27T02:50:04.458Z,39.77
2018-01-27T02:52:33.827Z,48.40
2018-01-27T02:55:03.445Z,39.63
2018-01-27T02:57:33.075Z,50.23
2018-01-27T03:00:01.931Z,46.33
2018-01-27T03:02:31.546Z,50.17
2018-01-27T03:05:01.154Z,42.40
2018-01-27T03:07:30.803Z,50.57
2018-01-27T03:09:59.642Z,51.73
2018-01-27T03:12:29.259Z,44.90
2018-01-27T03:14:58.364Z,47.07
2018-01-27T03:17:27.175Z,43.80
2018-01-27T03:19:56.010Z,43.40
2018-01-27T03:22:24.859Z,41.30
2018-01-27T03:24:53.689Z,42.87
2018-01-27T03:27:22.533Z,47.70
2018-01-27T03:29:51.366Z,46.53
2018-01-27T03:32:20.206Z,46.90
2018-01-27T03:34:49.111Z,43.17
2018-01-27T03:37:17.957Z,43.20
2018-01-27T03:39:46.836Z,43.03
2018-01-27T03:42:15.659Z,46.40
2018-01-27T03:44:45.262Z,52.70
2018-01-27T03:47:14.862Z,47.43
2018-01-27T03:49:44.469Z,49.40
2018-01-27T03:52:14.110Z,48.10
2018-01-27T03:54:43.149Z,54.17
2018-01-27T03:57:11.988Z,47.73
2018-01-27T03:59:40.829Z,51.33
2018-01-27T04:02:09.680Z,56.03
2018-01-27T04:04:38.551Z,52.63
2018-01-27T04:07:07.391Z,48.53
2018-01-27T04:09:37.001Z,43.80
2018-01-27T04:12:06.630Z,46.00
2018-01-27T04:14:36.238Z,46.07
2018-01-27T04:17:05.871Z,50.00
2018-01-27T04:19:34.709Z,49.50
2018-01-27T04:22:04.375Z,48.87
2018-01-27T04:24:33.210Z,44.70
2018-01-27T04:27:02.054Z,52.37
2018-01-27T04:29:30.897Z,47.20
2018-01-27T04:32:00.541Z,43.90
2018-01-27T04:34:29.361Z,39.27
2018-01-27T04:36:59.045Z,44.17
2018-01-27T04:39:27.867Z,44.13
2018-01-27T04:41:56.734Z,48.07
2018-01-27T04:44:25.579Z,43.73
2018-01-27T04:46:55.186Z,42.40
2018-01-27T04:49:24.801Z,45.43
2018-01-27T04:51:53.630Z,46.83
2018-01-27T04:54:22.468Z,47.30
2018-01-27T04:56:52.081Z,47.80
2018-01-27T04:59:21.770Z,42.37
2018-01-27T05:01:51.389Z,45.40
2018-01-27T05:04:20.209Z,42.90
2018-01-27T05:06:49.062Z,58.13
2018-01-27T05:09:18.706Z,50.37
2018-01-27T05:11:47.559Z,47.77
2018-01-27T05:14:17.153Z,47.20
2018-01-27T05:16:46.010Z,45.57
2018-01-27T05:19:14.842Z,45.40
2018-01-27T05:21:44.470Z,46.03
2018-01-27T05:24:14.097Z,48.00
2018-01-27T05:26:42.934Z,51.03
2018-01-27T05:29:11.769Z,48.30
2018-01-27T05:31:40.618Z,48.97
2018-01-27T05:34:09.450Z,51.30
2018-01-27T05:36:38.295Z,54.00
2018-01-27T05:39:07.128Z,54.07
2018-01-27T05:41:36.729Z,47.50
2018-01-27T05:44:05.590Z,45.93
2018-01-27T05:46:34.489Z,47.50
2018-01-27T05:49:03.340Z,51.30
2018-01-27T05:51:32.187Z,50.10
2018-01-27T05:54:01.096Z,48.33
2018-01-27T05:56:29.895Z,49.10
2018-01-27T05:58:59.498Z,48.10
2018-01-27T06:01:29.110Z,55.23
2018-01-27T06:03:58.716Z,49.40
2018-01-27T06:06:28.367Z,46.00
2018-01-27T06:08:57.221Z,54.53
2018-01-27T06:11:26.854Z,45.83
2018-01-27T06:13:55.700Z,55.53
2018-01-27T06:16:24.543Z,53.10
2018-01-27T06:18:53.394Z,45.03
2018-01-27T06:21:23.027Z,43.47
2018-01-27T06:23:51.879Z,47.93
2018-01-27T06:26:21.495Z,49.17
2018-01-27T06:28:51.105Z,55.03
2018-01-27T06:31:20.718Z,67.50
2018-01-27T06:33:49.570Z,61.87
2018-01-27T06:36:18.409Z,63.90
2018-01-27T06:38:47.266Z,51.13
2018-01-27T06:41:16.881Z,50.37
2018-01-27T06:43:46.726Z,65.37
2018-01-27T06:46:16.810Z,50.27
2018-01-27T06:48:46.455Z,56.53
2018-01-27T06:51:15.318Z,61.50
2018-01-27T06:53:44.918Z,48.27
2018-01-27T06:56:13.706Z,56.63
2018-01-27T06:58:43.313Z,57.50
2018-01-27T07:01:12.923Z,53.33
2018-01-27T07:03:42.529Z,57.47
2018-01-27T07:06:12.157Z,61.67
2018-01-27T07:08:41.004Z,62.30
2018-01-27T07:11:13.934Z,56.53
2018-01-27T07:13:42.773Z,59.77
2018-01-27T07:16:12.396Z,63.70
2018-01-27T07:18:42.017Z,64.67
2018-01-27T07:21:11.649Z,68.40
2018-01-27T07:23:40.490Z,64.27
2018-01-27T07:26:09.337Z,61.23
2018-01-27T07:28:38.162Z,72.13
2018-01-27T07:31:07.078Z,61.87
2018-01-27T07:33:36.714Z,66.23
2018-01-27T07:36:05.564Z,74.73
2018-01-27T07:38:35.222Z,77.83
2018-01-27T07:41:04.073Z,61.53
2018-01-27T07:43:32.911Z,60.33
2018-01-27T07:46:02.526Z,73.00
2018-01-27T07:48:32.178Z,65.07
2018-01-27T07:51:01.040Z,75.03
2018-01-27T07:53:29.862Z,70.83
2018-01-27T07:55:58.733Z,58.57
2018-01-27T07:58:27.592Z,59.03
2018-01-27T08:00:57.208Z,59.27
2018-01-27T08:03:26.829Z,59.67
2018-01-27T08:05:55.685Z,57.47
2018-01-27T08:08:24.517Z,64.93
2018-01-27T08:10:53.369Z,68.40
2018-01-27T08:13:23.011Z,60.33
2018-01-27T08:15:51.853Z,64.63
2018-01-27T08:18:21.505Z,69.33
2018-01-27T08:20:50.374Z,74.87
2018-01-27T08:23:19.989Z,66.23
2018-01-27T08:25:48.822Z,67.83
2018-01-27T08:28:17.682Z,63.17
2018-01-27T08:30:46.503Z,55.90
2018-01-27T08:33:15.358Z,66.90
2018-01-27T08:35:44.201Z,63.53
2018-01-27T08:38:13.037Z,57.70
2018-01-27T08:40:41.894Z,61.47
2018-01-27T08:43:10.763Z,59.10
2018-01-27T08:45:40.404Z,66.13
2018-01-27T08:48:09.250Z,61.37
2018-01-27T08:50:38.102Z,50.60
2018-01-27T08:53:06.932Z,61.27
2018-01-27T08:55:35.774Z,52.70
2018-01-27T08:58:04.631Z,50.97
2018-01-27T09:00:34.274Z,51.13
2018-01-27T09:03:03.122Z,53.70
2018-01-27T09:05:32.754Z,50.53
2018-01-27T09:08:01.605Z,46.73
2018-01-27T09:10:30.446Z,50.47
2018-01-27T09:12:59.301Z,58.20
2018-01-27T09:15:28.913Z,51.47
2018-01-27T09:17:57.782Z,47.67
2018-01-27T09:20:27.410Z,61.37
2018-01-27T09:22:57.110Z,53.00
2018-01-27T09:25:26.720Z,63.03
2018-01-27T09:27:56.352Z,62.20
2018-01-27T09:30:25.207Z,55.93
2018-01-27T09:32:55.144Z,60.93
2018-01-27T09:35:24.735Z,60.03
2018-01-27T09:37:54.349Z,57.33
2018-01-27T09:40:23.974Z,61.87
2018-01-27T09:42:52.821Z,53.37
2018-01-27T09:45:21.684Z,56.53
2018-01-27T09:47:50.568Z,41.70
2018-01-27T09:50:19.445Z,54.60
2018-01-27T09:52:49.410Z,54.77
2018-01-27T09:55:18.265Z,45.93
2018-01-27T09:57:47.242Z,46.17
2018-01-27T10:00:16.143Z,40.60
2018-01-27T10:02:45.003Z,40.73
2018-01-27T10:05:14.943Z,43.70
2018-01-27T10:07:44.574Z,43.10
2018-01-27T10:10:13.452Z,41.87
2018-01-27T10:12:43.046Z,46.73
2018-01-27T10:15:12.669Z,41.27
2018-01-27T10:17:41.540Z,38.33
2018-01-27T10:20:11.153Z,40.73
2018-01-27T10:22:40.781Z,43.30
2018-01-27T10:25:10.065Z,41.87
2018-01-27T10:27:39.685Z,44.60
2018-01-27T10:30:08.506Z,43.87
2018-01-27T10:32:37.367Z,44.40
2018-01-27T10:35:06.247Z,52.90
2018-01-27T10:37:35.099Z,47.80
2018-01-27T10:40:03.933Z,49.53
2018-01-27T10:42:32.882Z,48.43
2018-01-27T10:45:02.634Z,49.57
2018-01-27T10:47:33.823Z,50.27
2018-01-27T10:50:02.654Z,45.50
2018-01-27T10:52:32.570Z,53.20
2018-01-27T10:55:02.195Z,52.33
2018-01-27T10:57:31.046Z,51.90
2018-01-27T11:00:00.675Z,49.50
2018-01-27T11:02:29.543Z,51.30
2018-01-27T11:04:59.175Z,44.17
2018-01-27T11:07:28.040Z,44.70
2018-01-27T11:09:57.689Z,44.17
2018-01-27T11:12:26.532Z,44.53
2018-01-27T11:14:55.902Z,46.97
2018-01-27T11:17:24.767Z,46.50
2018-01-27T11:19:53.623Z,46.53
2018-01-27T11:22:23.253Z,43.37
2018-01-27T11:24:52.142Z,38.17
2018-01-27T11:27:21.729Z,47.93
2018-01-27T11:29:50.596Z,38.50
2018-01-27T11:32:19.454Z,46.73
2018-01-27T11:34:48.310Z,47.70
2018-01-27T11:37:17.173Z,42.57
2018-01-27T11:39:46.790Z,45.67
2018-01-27T11:42:16.513Z,40.93
2018-01-27T11:44:45.335Z,38.93
2018-01-27T11:47:14.169Z,41.50
2018-01-27T11:49:43.494Z,38.63
2018-01-27T11:52:12.353Z,40.40
2018-01-27T11:54:41.207Z,39.53
2018-01-27T11:57:10.054Z,38.07
2018-01-27T11:59:38.909Z,33.07
2018-01-27T12:02:07.785Z,32.40
2018-01-27T12:04:37.407Z,31.17
2018-01-27T12:07:06.265Z,34.43
2018-01-27T12:09:35.145Z,33.83
2018-01-27T12:12:03.993Z,34.73
2018-01-27T12:14:32.891Z,28.90
2018-01-27T12:17:01.771Z,35.07
2018-01-27T12:19:30.638Z,36.73
2018-01-27T12:22:00.255Z,39.50
2018-01-27T12:24:29.889Z,35.73
2018-01-27T12:26:58.772Z,30.20
2018-01-27T12:29:27.630Z,30.57
2018-01-27T12:31:57.259Z,33.03
2018-01-27T12:34:26.150Z,32.93
2018-01-27T12:36:55.169Z,32.10
2018-01-27T12:39:24.085Z,31.60
2018-01-27T12:41:52.954Z,38.30
2018-01-27T12:44:21.811Z,32.67
2018-01-27T12:46:50.780Z,32.23
2018-01-27T12:49:19.635Z,39.20
2018-01-27T12:51:49.451Z,32.80
2018-01-27T12:54:18.264Z,35.90
2018-01-27T12:56:47.135Z,37.47
2018-01-27T12:59:16.779Z,37.07
2018-01-27T13:01:45.628Z,34.63
2018-01-27T13:04:15.247Z,35.97
2018-01-27T13:06:44.869Z,38.17
2018-01-27T13:09:13.734Z,35.83
2018-01-27T13:11:43.362Z,32.00
2018-01-27T13:14:12.209Z,32.13
2018-01-27T13:16:41.080Z,31.73
2018-01-27T13:19:09.914Z,27.00
2018-01-27T13:21:39.588Z,30.90
2018-01-27T13:24:08.454Z,29.13
2018-01-27T13:26:37.284Z,32.90
2018-01-27T13:29:06.196Z,31.23
2018-01-27T13:31:35.795Z,30.17
2018-01-27T13:34:05.430Z,31.10
2018-01-27T13:36:34.302Z,31.60
2018-01-27T13:39:03.597Z,28.00
2018-01-27T13:41:33.217Z,28.00
2018-01-27T13:44:02.105Z,28.50
2018-01-27T13:46:31.712Z,32.73
2018-01-27T13:49:00.606Z,30.10
2018-01-27T13:51:29.447Z,30.87
2018-01-27T13:53:59.100Z,34.60
2018-01-27T13:56:27.948Z,25.80
2018-01-27T13:58:57.566Z,25.97
2018-01-27T14:01:27.178Z,34.20
2018-01-27T14:03:56.804Z,23.97
2018-01-27T14:06:26.439Z,26.23
2018-01-27T14:08:55.275Z,28.20
2018-01-27T14:11:24.973Z,25.93
2018-01-27T14:13:53.805Z,31.83
2018-01-27T14:16:22.655Z,30.77
2018-01-27T14:18:51.478Z,29.87
2018-01-27T14:21:20.335Z,28.57
2018-01-27T14:23:49.956Z,28.70
2018-01-27T14:26:18.848Z,28.37
2018-01-27T14:28:48.468Z,28.03
2018-01-27T14:31:17.344Z,25.47
2018-01-27T14:33:46.299Z,28.23
2018-01-27T14:36:15.097Z,32.00
2018-01-27T14:38:44.833Z,26.80
2018-01-27T14:41:14.464Z,33.00
2018-01-27T14:43:43.313Z,32.00
2018-01-27T14:46:12.662Z,27.63
2018-01-27T14:48:41.535Z,32.53
2018-01-27T14:51:10.360Z,31.70
2018-01-27T14:53:39.228Z,30.07
2018-01-27T14:56:08.101Z,32.53
2018-01-27T14:58:37.714Z,28.00
2018-01-27T15:01:06.568Z,27.20
2018-01-27T15:03:35.397Z,26.60
2018-01-27T15:06:04.291Z,24.17
2018-01-27T15:08:33.149Z,26.10
2018-01-27T15:11:02.765Z,31.20
2018-01-27T15:13:32.392Z,28.50
2018-01-27T15:16:01.257Z,30.50
2018-01-27T15:18:30.848Z,27.77
2018-01-27T15:21:00.481Z,24.90
2018-01-27T15:23:29.348Z,34.23
2018-01-27T15:25:58.966Z,29.70
2018-01-27T15:28:28.583Z,33.00
2018-01-27T15:30:58.235Z,31.57
2018-01-27T15:33:27.112Z,34.07
2018-01-27T15:35:55.963Z,29.63
2018-01-27T15:38:25.584Z,27.63
2018-01-27T15:40:54.515Z,32.33
2018-01-27T15:43:23.372Z,31.37
2018-01-27T15:45:52.283Z,34.03
2018-01-27T15:48:21.096Z,31.53
2018-01-27T15:50:49.954Z,25.20
2018-01-27T15:53:19.563Z,34.93
2018-01-27T15:55:49.191Z,27.00
2018-01-27T15:58:18.040Z,27.17
2018-01-27T16:00:46.892Z,27.90
2018-01-27T16:03:15.731Z,44.53
2018-01-27T16:05:45.349Z,32.67
2018-01-27T16:08:15.056Z,29.80
2018-01-27T16:10:44.678Z,32.37
2018-01-27T16:13:14.303Z,33.10
2018-01-27T16:15:43.153Z,28.73
2018-01-27T16:18:12.782Z,31.23
2018-01-27T16:20:41.645Z,28.00
2018-01-27T16:23:11.286Z,29.67
2018-01-27T16:25:40.150Z,28.40
2018-01-27T16:28:09.336Z,41.53
2018-01-27T16:30:38.966Z,29.37
2018-01-27T16:33:08.609Z,36.07
2018-01-27T16:35:37.438Z,30.20
2018-01-27T16:38:06.306Z,31.67
2018-01-27T16:40:35.166Z,30.57
2018-01-27T16:43:04.051Z,33.70
2018-01-27T16:45:33.626Z,27.07
2018-01-27T16:48:02.487Z,34.67
2018-01-27T16:50:31.320Z,36.67
2018-01-27T16:53:00.190Z,31.87
2018-01-27T16:55:29.802Z,31.00
2018-01-27T16:57:58.654Z,41.80
2018-01-27T17:00:27.544Z,36.17
2018-01-27T17:02:56.407Z,23.27
2018-01-27T17:05:25.279Z,28.33
2018-01-27T17:07:54.740Z,28.97
2018-01-27T17:10:23.580Z,27.83
2018-01-27T17:12:52.457Z,25.10
2018-01-27T17:15:21.326Z,28.83
2018-01-27T17:17:50.926Z,27.27
2018-01-27T17:20:20.584Z,29.00
2018-01-27T17:22:49.425Z,26.37
2018-01-27T17:25:19.041Z,27.30
2018-01-27T17:27:48.671Z,27.47
2018-01-27T17:30:17.570Z,26.83
2018-01-27T17:32:46.391Z,26.53
2018-01-27T17:35:15.242Z,28.03
2018-01-27T17:37:44.335Z,25.47
2018-01-27T17:40:13.962Z,27.27
2018-01-27T17:42:42.806Z,24.90
2018-01-27T17:45:12.499Z,27.10
2018-01-27T17:47:41.306Z,24.10
2018-01-27T17:50:10.166Z,22.63
2018-01-27T17:52:39.793Z,25.60
2018-01-27T17:55:08.643Z,20.00
2018-01-27T17:57:38.324Z,20.60
2018-01-27T18:00:08.198Z,21.67
2018-01-27T18:02:37.050Z,20.27
2018-01-27T18:05:06.413Z,17.23
2018-01-27T18:07:35.341Z,17.53
2018-01-27T18:10:04.221Z,18.30
2018-01-27T18:12:33.032Z,19.37
2018-01-27T18:15:02.764Z,19.70
2018-01-27T18:17:32.563Z,17.97
2018-01-27T18:20:01.853Z,17.60
2018-01-27T18:22:31.020Z,16.97
2018-01-27T18:24:59.855Z,17.57
2018-01-27T18:27:28.749Z,24.90
2018-01-27T18:29:58.478Z,16.70
2018-01-27T18:32:27.362Z,20.77
2018-01-27T18:34:56.229Z,18.57
2018-01-27T18:37:25.862Z,16.40
2018-01-27T18:39:54.765Z,13.30
2018-01-27T18:42:23.616Z,20.40
2018-01-27T18:44:53.247Z,13.60
2018-01-27T18:47:22.113Z,16.90
2018-01-27T18:49:50.959Z,15.20
2018-01-27T18:52:20.734Z,15.03
2018-01-27T18:54:50.432Z,14.00
2018-01-27T18:57:19.273Z,17.30
2018-01-27T18:59:48.138Z,14.37
2018-01-27T19:02:18.729Z,17.13
2018-01-27T19:04:47.582Z,14.70
2018-01-27T19:07:16.424Z,14.50
2018-01-27T19:09:45.277Z,15.20
2018-01-27T19:12:14.448Z,13.20
2018-01-27T19:14:43.840Z,11.10
2018-01-27T19:17:13.444Z,15.77
2018-01-27T19:19:42.429Z,12.37
2018-01-27T19:22:12.063Z,15.70
2018-01-27T19:24:40.924Z,12.13
2018-01-27T19:27:10.539Z,14.07
2018-01-27T19:29:40.138Z,12.10
2018-01-27T19:32:09.760Z,13.37
2018-01-27T19:34:39.372Z,10.97
2018-01-27T19:37:08.233Z,10.90
2018-01-27T19:39:37.072Z,11.00
2018-01-27T19:42:05.926Z,10.50
2018-01-27T19:44:35.549Z,11.40
2018-01-27T19:47:04.430Z,10.83
2018-01-27T19:49:34.045Z,12.87
2018-01-27T19:52:03.701Z,13.10
2018-01-27T19:54:32.556Z,8.63
2018-01-27T19:57:01.402Z,10.30
2018-01-27T19:59:30.265Z,9.23
2018-01-27T20:01:59.110Z,8.10
2018-01-27T20:04:28.701Z,8.30
2018-01-27T20:06:58.303Z,8.17
2018-01-27T20:09:27.910Z,9.70
2018-01-27T20:11:57.539Z,6.70
2018-01-27T20:14:26.914Z,10.40
2018-01-27T20:16:56.122Z,8.57
2018-01-27T20:19:24.947Z,9.70
2018-01-27T20:21:53.830Z,6.30
2018-01-27T20:24:22.685Z,10.73
2018-01-27T20:26:52.320Z,6.67
2018-01-27T20:29:21.118Z,9.37
2018-01-27T20:31:50.143Z,6.93
2018-01-27T20:34:18.990Z,7.77
2018-01-27T20:36:47.819Z,7.13
2018-01-27T20:39:16.653Z,9.67
2018-01-27T20:41:46.359Z,7.37
2018-01-27T20:44:15.171Z,6.87
2018-01-27T20:46:44.037Z,7.37
2018-01-27T20:49:13.614Z,8.53
2018-01-27T20:51:42.466Z,6.57
2018-01-27T20:54:11.314Z,8.87
2018-01-27T20:56:40.936Z,9.00
2018-01-27T20:59:10.558Z,7.33
2018-01-27T21:01:39.389Z,8.77
2018-01-27T21:04:08.236Z,6.73
2018-01-27T21:06:37.085Z,13.70
2018-01-27T21:09:05.929Z,7.50
2018-01-27T21:11:34.761Z,6.30
2018-01-27T21:14:03.587Z,8.00
2018-01-27T21:16:33.210Z,9.73
2018-01-27T21:19:02.096Z,8.80
2018-01-27T21:21:30.939Z,7.50
2018-01-27T21:23:59.777Z,14.03
2018-01-27T21:26:28.664Z,11.60
2018-01-27T21:28:57.501Z,12.20
2018-01-27T21:31:26.347Z,7.70
2018-01-27T21:33:55.191Z,7.87
2018-01-27T21:36:24.914Z,13.20
2018-01-27T21:38:54.517Z,10.53
2018-01-27T21:41:24.150Z,9.13
2018-01-27T21:43:52.993Z,9.73
2018-01-27T21:46:21.846Z,9.63
2018-01-27T21:48:50.698Z,9.40
2018-01-27T21:51:19.890Z,6.97
2018-01-27T21:53:48.763Z,8.43
2018-01-27T21:56:17.617Z,6.80
2018-01-27T21:58:46.498Z,9.17
2018-01-27T22:01:15.338Z,7.50
2018-01-27T22:03:44.153Z,7.80
2018-01-27T22:06:13.026Z,13.50
2018-01-27T22:08:41.882Z,6.87
2018-01-27T22:11:11.472Z,7.87
2018-01-27T22:13:40.311Z,7.93
2018-01-27T22:16:09.143Z,8.43
2018-01-27T22:18:37.938Z,8.83
2018-01-27T22:21:06.916Z,7.80
2018-01-27T22:23:35.732Z,8.00
2018-01-27T22:26:04.586Z,8.00
2018-01-27T22:28:33.407Z,11.33
2018-01-27T22:31:03.026Z,6.80
2018-01-27T22:33:32.645Z,7.03
2018-01-27T22:36:01.466Z,6.80
2018-01-27T22:38:30.289Z,6.17
2018-01-27T22:40:59.122Z,6.93
2018-01-27T22:43:27.955Z,5.20
2018-01-27T22:45:56.790Z,6.30
2018-01-27T22:48:25.628Z,7.50
2018-01-27T22:50:55.137Z,5.20
2018-01-27T22:53:24.705Z,8.13
2018-01-27T22:55:53.543Z,8.27
2018-01-27T22:58:23.369Z,4.83
2018-01-27T23:00:57.992Z,6.80
2018-01-27T23:03:26.822Z,5.97
2018-01-27T23:05:56.431Z,5.93
2018-01-27T23:08:25.269Z,5.23
2018-01-27T23:10:54.099Z,5.23
2018-01-27T23:13:22.916Z,5.90
2018-01-27T23:15:53.706Z,6.90
2018-01-27T23:18:23.334Z,10.37
2018-01-27T23:20:53.059Z,4.60
2018-01-27T23:23:21.894Z,7.60
2018-01-27T23:25:50.742Z,4.17
2018-01-27T23:28:19.577Z,4.40
2018-01-27T23:30:49.221Z,6.37
2018-01-27T23:33:18.810Z,4.80
2018-01-27T23:35:48.431Z,6.27
2018-01-27T23:38:17.233Z,4.60
2018-01-27T23:40:46.084Z,6.20
2018-01-27T23:43:15.715Z,4.90
2018-01-27T23:45:44.551Z,5.40
2018-01-27T23:48:14.398Z,7.60
2018-01-27T23:50:44.030Z,5.03
2018-01-27T23:53:13.622Z,4.90
2018-01-27T23:55:43.245Z,6.43
2018-01-27T23:58:12.833Z,9.60
